メインページ
METAR-TAF:

METAR-TAF

空港 :

アンマン, ヨルダン

緯度: 31-59N, 経度: 035-59E, 海抜: 767m

現時点の気象観測

当レポートは52分前の10:00(UTC)に作成
北西の風 11kt
気温 32°C
湿度 16%
気圧 1016 hPa
視程: 6000m

METAR: OJAM 211000Z 32011KT 6000 NSC 32/03 Q1016 NOSIG

時間: 13:52 (10:52 UTC)

予報

当レポートは6時間2分前の04:50(UTC)に作成
予報は21日の 06時(UTC)から 22日の 12時(UTC)まで有効
西の風 12kt
視程: 5000m
煙霧
21日の 09時(UTC)から 21日の 16時(UTC)まで一時的に
西/北西の風 16kt
視程: 4000m
風塵
21日の 16時(UTC)から 21日の 18時(UTC)まで徐々に
西/北西の風 8kt
視程: 6000m
22日の 01時(UTC)から 22日の 05時(UTC)まで一時的に
西/南西の風 8kt
視程: 3000m
煙霧
22日の 05時(UTC)から 22日の 07時(UTC)まで徐々に
西/北西の風 16kt
視程: 5000m
煙霧

TAF: OJAM 210450Z 2106/2212 28012KT 5000 HZ NSC TEMPO 2109/2116 29016KT 4000 BLDU BECMG 2116/2118 29008KT 6000 NSC TEMPO 2201/2205 25008KT 3000 HZ BECMG 2205/2207 30016KT 5000 HZ NSC

4,000以上の空港の気象観測と天気予報(METAR報とTAF報)

利用可能な観測所は地図上に黄色い丸と赤い丸で示す。

丸の上にカーソルを重ねると観測所名を参照できる。

次にクリックすると気象観測と天気予報を参照できる。

マップの切り替え:黒色「×」印の緑ボタンをクリックして拡大、「-」印の緑ボタンをクリックして縮小、緑色の三角印をクリックして隣りの地図に切り替え


METAR-TAF: